createdAt,value
2023-02-15T00:01:37.522Z,102238.41
2023-02-15T00:04:04.932Z,102236.00
2023-02-15T00:06:31.808Z,102235.34
2023-02-15T00:08:58.422Z,102239.06
2023-02-15T00:11:43.212Z,102233.78
2023-02-15T00:14:11.078Z,102230.38
2023-02-15T00:16:38.506Z,102232.25
2023-02-15T00:19:05.717Z,102232.50
2023-02-15T00:21:33.713Z,102226.50
2023-02-15T00:24:01.863Z,102239.91
2023-02-15T00:26:28.619Z,102229.31
2023-02-15T00:28:56.079Z,102234.84
2023-02-15T00:31:22.811Z,102229.69
2023-02-15T00:33:49.258Z,102228.84
2023-02-15T00:36:15.708Z,102222.66
2023-02-15T00:38:42.120Z,102220.06
2023-02-15T00:41:09.804Z,102229.88
2023-02-15T00:43:37.469Z,102214.94
2023-02-15T00:46:05.768Z,102223.78
2023-02-15T00:48:32.174Z,102217.66
2023-02-15T00:51:00.563Z,102213.31
2023-02-15T00:55:54.848Z,102210.03
2023-02-15T00:58:21.489Z,102209.38
2023-02-15T01:00:48.656Z,102211.34
2023-02-15T01:03:17.450Z,102207.94
2023-02-15T01:05:43.868Z,102205.41
2023-02-15T01:08:10.596Z,102205.59
2023-02-15T01:10:37.552Z,102203.09
2023-02-15T01:13:05.858Z,102198.81
2023-02-15T01:15:34.706Z,102205.16
2023-02-15T01:18:01.040Z,102198.22
2023-02-15T01:20:29.327Z,102193.00
2023-02-15T01:22:57.510Z,102196.69
2023-02-15T01:25:26.103Z,102196.78
2023-02-15T01:27:52.551Z,102188.00
2023-02-15T01:30:19.323Z,102196.09
2023-02-15T01:32:45.835Z,102191.81
2023-02-15T01:35:12.760Z,102185.69
2023-02-15T01:37:39.171Z,102181.41
2023-02-15T01:40:08.398Z,102178.75
2023-02-15T01:42:34.939Z,102171.78
2023-02-15T01:45:04.533Z,102170.16
2023-02-15T01:47:35.457Z,102170.25
2023-02-15T01:50:19.622Z,102168.59
2023-02-15T01:52:56.008Z,102158.94
2023-02-15T01:55:26.100Z,102164.31
2023-02-15T01:57:53.045Z,102158.25
2023-02-15T02:00:20.089Z,102151.19
2023-02-15T02:02:49.169Z,102146.84
2023-02-15T02:05:15.641Z,102137.16
2023-02-15T02:07:47.521Z,102141.50
2023-02-15T02:10:18.142Z,102137.16
2023-02-15T02:12:46.728Z,102141.50
2023-02-15T02:15:14.197Z,102130.88
2023-02-15T02:18:00.868Z,102136.00
2023-02-15T02:21:04.791Z,102139.44
2023-02-15T02:23:54.691Z,102141.16
2023-02-15T02:26:29.517Z,102141.94
2023-02-15T02:29:23.201Z,102137.56
2023-02-15T02:32:07.823Z,102132.25
2023-02-15T02:34:49.797Z,102133.97
2023-02-15T02:37:35.420Z,102130.44
2023-02-15T02:40:11.997Z,102121.63
2023-02-15T02:42:42.529Z,102118.06
2023-02-15T02:45:26.999Z,102130.53
2023-02-15T02:47:59.982Z,102134.13
2023-02-15T02:50:29.597Z,102129.75
2023-02-15T02:52:57.848Z,102136.00
2023-02-15T02:55:31.682Z,102135.16
2023-02-15T02:58:20.422Z,102129.00
2023-02-15T03:00:53.110Z,102132.56
2023-02-15T03:03:30.599Z,102125.56
2023-02-15T03:06:01.868Z,102122.97
2023-02-15T03:08:36.751Z,102131.06
2023-02-15T03:11:05.148Z,102120.59
2023-02-15T03:13:32.912Z,102115.34
2023-02-15T03:16:20.468Z,102113.72
2023-02-15T03:18:58.088Z,102108.56
2023-02-15T03:21:50.584Z,102103.50
2023-02-15T03:24:22.967Z,102102.06
2023-02-15T03:26:52.719Z,102107.63
2023-02-15T03:29:22.791Z,102117.66
2023-02-15T03:31:54.990Z,102110.69
2023-02-15T03:34:21.728Z,102111.81
2023-02-15T03:37:25.614Z,102108.38
2023-02-15T03:40:21.257Z,102104.94
2023-02-15T03:42:53.336Z,102103.25
2023-02-15T03:45:27.426Z,102101.50
2023-02-15T03:47:57.231Z,102104.28
2023-02-15T03:50:55.621Z,102103.50
2023-02-15T03:53:24.302Z,102094.84
2023-02-15T03:55:55.435Z,102101.06
2023-02-15T03:58:40.485Z,102090.72
2023-02-15T04:01:53.360Z,102092.66
2023-02-15T04:04:25.505Z,102093.69
2023-02-15T04:06:51.967Z,102098.31
2023-02-15T04:09:36.804Z,102096.69
2023-02-15T04:12:03.368Z,102096.84
2023-02-15T04:14:48.522Z,102098.72
2023-02-15T04:17:14.958Z,102100.59
2023-02-15T04:19:59.917Z,102094.59
2023-02-15T04:22:44.607Z,102093.91
2023-02-15T04:25:13.762Z,102102.13
2023-02-15T04:27:43.505Z,102097.84
2023-02-15T04:30:12.178Z,102093.72
2023-02-15T04:32:39.420Z,102087.78
2023-02-15T04:35:07.501Z,102092.47
2023-02-15T04:37:34.832Z,102092.63
2023-02-15T04:40:01.229Z,102084.91
2023-02-15T04:42:27.727Z,102088.59
2023-02-15T04:44:55.316Z,102076.38
2023-02-15T04:47:21.920Z,102084.50
2023-02-15T04:49:48.369Z,102090.00
2023-02-15T04:52:14.904Z,102080.38
2023-02-15T04:54:41.552Z,102089.31
2023-02-15T04:57:07.886Z,102085.84
2023-02-15T04:59:34.302Z,102085.84
2023-02-15T05:02:00.742Z,102080.56
2023-02-15T05:04:27.230Z,102081.41
2023-02-15T05:06:54.016Z,102081.41
2023-02-15T05:09:20.441Z,102068.19
2023-02-15T05:11:46.888Z,102070.09
2023-02-15T05:14:13.446Z,102065.72
2023-02-15T05:16:40.129Z,102061.50
2023-02-15T05:19:06.690Z,102064.22
2023-02-15T05:21:33.820Z,102056.44
2023-02-15T05:24:00.279Z,102054.81
2023-02-15T05:26:45.360Z,102050.50
2023-02-15T05:29:11.924Z,102052.38
2023-02-15T05:31:38.837Z,102055.13
2023-02-15T05:34:05.396Z,102050.84
2023-02-15T05:36:31.723Z,102053.47
2023-02-15T05:38:58.065Z,102048.25
2023-02-15T05:41:25.100Z,102055.25
2023-02-15T05:43:51.535Z,102058.78
2023-02-15T05:46:17.908Z,102052.53
2023-02-15T05:48:44.297Z,102043.78
2023-02-15T05:51:16.912Z,102035.84
2023-02-15T05:53:43.268Z,102038.66
2023-02-15T05:56:13.157Z,102036.00
2023-02-15T05:58:41.439Z,102032.56
2023-02-15T06:01:19.365Z,102026.50
2023-02-15T06:03:46.822Z,102026.63
2023-02-15T06:06:13.208Z,102035.53
2023-02-15T06:08:39.744Z,102032.03
2023-02-15T06:11:06.364Z,102033.94
2023-02-15T06:13:33.226Z,102041.00
2023-02-15T06:16:00.628Z,102040.25
2023-02-15T06:18:27.514Z,102037.63
2023-02-15T06:20:53.875Z,102041.22
2023-02-15T06:23:20.403Z,102040.38
2023-02-15T06:25:47.060Z,102045.72
2023-02-15T06:28:14.003Z,102043.25
2023-02-15T06:30:40.564Z,102043.34
2023-02-15T06:33:07.040Z,102043.34
2023-02-15T06:35:33.611Z,102042.53
2023-02-15T06:37:59.975Z,102043.47
2023-02-15T06:40:26.337Z,102037.41
2023-02-15T06:42:52.765Z,102038.31
2023-02-15T06:45:19.210Z,102040.97
2023-02-15T06:47:45.682Z,102039.25
2023-02-15T06:50:13.227Z,102045.41
2023-02-15T06:52:39.560Z,102041.91
2023-02-15T06:55:06.581Z,102045.41
2023-02-15T06:57:34.053Z,102039.16
2023-02-15T07:00:00.455Z,102042.69
2023-02-15T07:02:26.837Z,102036.44
2023-02-15T07:04:53.238Z,102047.84
2023-02-15T07:07:19.899Z,102053.06
2023-02-15T07:09:46.228Z,102049.50
2023-02-15T07:12:30.992Z,102048.53
2023-02-15T07:14:59.061Z,102049.28
2023-02-15T07:17:36.905Z,102038.56
2023-02-15T07:20:05.960Z,102045.44
2023-02-15T07:22:34.832Z,102039.13
2023-02-15T07:25:01.271Z,102039.88
2023-02-15T07:27:27.700Z,102037.09
2023-02-15T07:29:54.132Z,102041.41
2023-02-15T07:32:20.561Z,102036.78
2023-02-15T07:34:46.953Z,102035.59
2023-02-15T07:37:13.328Z,102028.34
2023-02-15T07:39:39.696Z,102026.31
2023-02-15T07:42:06.189Z,102021.63
2023-02-15T07:44:32.533Z,102019.59
2023-02-15T07:46:58.840Z,102013.97
2023-02-15T07:49:25.328Z,102015.34
2023-02-15T07:51:51.732Z,102012.44
2023-02-15T07:54:18.266Z,102013.84
2023-02-15T07:56:44.700Z,102005.47
2023-02-15T07:59:11.131Z,102006.84
2023-02-15T08:01:39.004Z,102007.19
2023-02-15T08:04:07.097Z,102001.47
2023-02-15T08:06:36.140Z,102001.91
2023-02-15T08:09:08.363Z,102004.06
2023-02-15T08:11:40.804Z,101993.84
2023-02-15T08:14:17.868Z,102000.38
2023-02-15T08:16:46.832Z,101998.13
2023-02-15T08:19:24.923Z,101993.22
2023-02-15T08:21:52.877Z,101985.66
2023-02-15T08:24:21.845Z,101992.25
2023-02-15T08:26:49.563Z,101995.31
2023-02-15T08:29:18.129Z,101994.88
2023-02-15T08:31:45.018Z,101993.56
2023-02-15T08:34:14.427Z,101990.47
2023-02-15T08:36:41.131Z,101993.50
2023-02-15T08:39:08.156Z,101992.09
2023-02-15T08:41:36.875Z,101982.81
2023-02-15T08:44:08.908Z,101975.22
2023-02-15T08:46:38.591Z,101970.38
2023-02-15T08:49:05.107Z,101967.31
2023-02-15T08:51:34.222Z,101966.00
2023-02-15T08:54:05.302Z,101964.75
2023-02-15T08:56:38.087Z,101966.19
2023-02-15T08:59:06.055Z,101956.97
2023-02-15T09:01:34.224Z,101952.22
2023-02-15T09:04:03.231Z,101943.00
2023-02-15T09:06:29.884Z,101942.69
2023-02-15T09:08:57.301Z,101943.25
2023-02-15T09:11:26.479Z,101939.25
2023-02-15T09:13:58.476Z,101942.38
2023-02-15T09:16:27.639Z,101944.53
2023-02-15T09:18:55.106Z,101946.81
2023-02-15T09:21:24.866Z,101948.13
2023-02-15T09:23:55.801Z,101951.13
2023-02-15T09:26:24.190Z,101936.38
2023-02-15T09:28:56.422Z,101935.81
2023-02-15T09:31:26.654Z,101929.97
2023-02-15T09:33:53.397Z,101939.22
2023-02-15T09:36:22.492Z,101940.59
2023-02-15T09:38:55.894Z,101939.88
2023-02-15T09:41:50.581Z,101938.50
2023-02-15T09:44:50.946Z,101930.69
2023-02-15T09:47:20.236Z,101934.66
2023-02-15T09:50:14.123Z,101930.41
2023-02-15T09:53:02.071Z,101932.41
2023-02-15T09:55:34.538Z,101938.09
2023-02-15T09:58:15.930Z,101939.13
2023-02-15T10:01:22.339Z,101929.50
2023-02-15T10:04:28.132Z,101925.97
2023-02-15T10:07:22.521Z,101925.19
2023-02-15T10:10:27.355Z,101917.38
2023-02-15T10:13:10.910Z,101920.97
2023-02-15T10:15:54.291Z,101922.97
2023-02-15T10:18:35.932Z,101927.56
2023-02-15T10:21:25.721Z,101932.22
2023-02-15T10:24:12.122Z,101937.50
2023-02-15T10:26:47.650Z,101931.59
2023-02-15T10:29:29.334Z,101934.44
2023-02-15T10:32:06.320Z,101929.97
2023-02-15T10:34:40.265Z,101927.47
2023-02-15T10:37:21.917Z,101921.38
2023-02-15T10:40:06.691Z,101916.94
2023-02-15T10:43:05.290Z,101922.28
2023-02-15T10:46:09.078Z,101912.47
2023-02-15T10:48:56.639Z,101912.47
2023-02-15T10:51:35.256Z,101917.06
2023-02-15T10:54:20.616Z,101923.41
2023-02-15T10:57:08.876Z,101921.69
2023-02-15T10:59:54.289Z,101918.16
2023-02-15T11:03:02.348Z,101914.59
2023-02-15T11:06:13.139Z,101919.81
2023-02-15T11:08:48.892Z,101909.25
2023-02-15T11:11:25.679Z,101909.47
2023-02-15T11:13:57.626Z,101907.72
2023-02-15T11:16:29.873Z,101903.28
2023-02-15T11:19:06.689Z,101901.56
2023-02-15T11:21:39.883Z,101899.66
2023-02-15T11:24:12.247Z,101888.00
2023-02-15T11:26:43.624Z,101890.59
2023-02-15T11:29:27.928Z,101879.66
2023-02-15T11:31:58.592Z,101876.06
2023-02-15T11:34:37.428Z,101871.59
2023-02-15T11:37:14.576Z,101873.22
2023-02-15T11:39:41.129Z,101873.50
2023-02-15T11:42:17.686Z,101857.56
2023-02-15T11:45:02.254Z,101863.25
2023-02-15T11:47:29.152Z,101863.41
2023-02-15T11:49:55.516Z,101864.59
2023-02-15T11:52:21.958Z,101860.22
2023-02-15T11:54:51.377Z,101862.22
2023-02-15T11:57:43.357Z,101858.84
2023-02-15T12:00:38.850Z,101858.88
2023-02-15T12:03:29.171Z,101848.53
2023-02-15T12:06:04.436Z,101836.50
2023-02-15T12:08:43.160Z,101837.91
2023-02-15T12:11:13.461Z,101839.31
2023-02-15T12:13:56.575Z,101821.19
2023-02-15T12:16:23.525Z,101827.28
2023-02-15T12:18:53.372Z,101824.88
2023-02-15T12:21:33.013Z,101817.94
2023-02-15T12:24:04.909Z,101820.06
2023-02-15T12:26:35.010Z,101819.50
2023-02-15T12:29:18.862Z,101812.38
2023-02-15T12:31:47.298Z,101811.78
2023-02-15T12:34:42.203Z,101812.78
2023-02-15T12:37:18.824Z,101800.28
2023-02-15T12:39:57.254Z,101797.84
2023-02-15T12:42:25.295Z,101801.63
2023-02-15T12:45:02.341Z,101784.75
2023-02-15T12:47:31.505Z,101784.19
2023-02-15T12:50:17.793Z,101785.97
2023-02-15T12:52:48.490Z,101788.94
2023-02-15T12:55:21.304Z,101785.34
2023-02-15T12:57:48.122Z,101776.63
2023-02-15T13:00:20.562Z,101777.75
2023-02-15T13:03:01.217Z,101783.38
2023-02-15T13:05:36.233Z,101773.00
2023-02-15T13:08:11.204Z,101771.53
2023-02-15T13:10:57.200Z,101772.75
2023-02-15T13:13:27.805Z,101765.91
2023-02-15T13:15:59.173Z,101764.63
2023-02-15T13:18:32.825Z,101758.72
2023-02-15T13:21:25.067Z,101765.22
2023-02-15T13:24:07.193Z,101760.91
2023-02-15T13:26:35.704Z,101755.19
2023-02-15T13:29:22.362Z,101758.28
2023-02-15T13:31:51.681Z,101756.28
2023-02-15T13:34:32.317Z,101756.09
2023-02-15T13:37:14.461Z,101747.00
2023-02-15T13:39:52.583Z,101744.00
2023-02-15T13:42:29.841Z,101739.44
2023-02-15T13:45:17.880Z,101731.03
2023-02-15T13:48:34.108Z,101725.31
2023-02-15T13:51:31.034Z,101723.16
2023-02-15T13:54:32.838Z,101719.13
2023-02-15T13:58:04.133Z,101720.53
2023-02-15T14:00:41.310Z,101721.06
2023-02-15T14:03:22.676Z,101717.19
2023-02-15T14:06:13.106Z,101718.03
2023-02-15T14:09:01.279Z,101720.13
2023-02-15T14:11:36.587Z,101711.53
2023-02-15T14:14:21.632Z,101706.66
2023-02-15T14:17:16.196Z,101704.16
2023-02-15T14:19:51.100Z,101709.78
2023-02-15T14:22:40.014Z,101710.97
2023-02-15T14:25:29.508Z,101705.94
2023-02-15T14:28:18.385Z,101705.47
2023-02-15T14:30:49.348Z,101702.44
2023-02-15T14:33:16.409Z,101689.59
2023-02-15T14:35:44.643Z,101694.69
2023-02-15T14:38:21.330Z,101681.00
2023-02-15T14:41:08.108Z,101682.69
2023-02-15T14:43:37.741Z,101680.84
2023-02-15T14:46:10.648Z,101676.28
2023-02-15T14:48:59.583Z,101669.88
2023-02-15T14:51:41.199Z,101677.13
2023-02-15T14:54:09.063Z,101671.19
2023-02-15T14:56:36.226Z,101668.00
2023-02-15T14:59:19.041Z,101661.88
2023-02-15T15:01:58.264Z,101664.94
2023-02-15T15:04:30.901Z,101666.25
2023-02-15T15:07:08.635Z,101671.97
2023-02-15T15:09:38.634Z,101663.50
2023-02-15T15:12:16.063Z,101671.94
2023-02-15T15:14:46.721Z,101662.47
2023-02-15T15:17:33.406Z,101668.03
2023-02-15T15:20:14.745Z,101660.25
2023-02-15T15:22:44.719Z,101670.38
2023-02-15T15:25:13.035Z,101661.72
2023-02-15T15:27:55.024Z,101670.00
2023-02-15T15:30:21.447Z,101665.78
2023-02-15T15:32:57.634Z,101666.94
2023-02-15T15:35:46.083Z,101665.41
2023-02-15T15:38:18.422Z,101665.88
2023-02-15T15:41:17.312Z,101675.16
2023-02-15T15:43:52.749Z,101657.72
2023-02-15T15:46:50.375Z,101667.13
2023-02-15T15:49:22.048Z,101669.63
2023-02-15T15:51:49.855Z,101663.84
2023-02-15T15:54:22.453Z,101662.63
2023-02-15T15:57:01.845Z,101657.72
2023-02-15T15:59:35.368Z,101660.03
2023-02-15T16:02:08.114Z,101663.38
2023-02-15T16:04:35.671Z,101652.50
2023-02-15T16:07:17.363Z,101650.28
2023-02-15T16:09:55.915Z,101650.03
2023-02-15T16:12:23.846Z,101649.00
2023-02-15T16:14:52.633Z,101642.53
2023-02-15T16:17:22.989Z,101649.38
2023-02-15T16:19:51.246Z,101642.91
2023-02-15T16:22:24.273Z,101647.06
2023-02-15T16:25:12.482Z,101644.31
2023-02-15T16:27:44.569Z,101640.50
2023-02-15T16:30:31.875Z,101643.13
2023-02-15T16:33:17.650Z,101649.16
2023-02-15T16:35:58.527Z,101639.94
2023-02-15T16:38:43.225Z,101646.91
2023-02-15T16:41:13.778Z,101644.97
2023-02-15T16:43:42.261Z,101650.97
2023-02-15T16:46:16.711Z,101650.75
2023-02-15T16:48:48.674Z,101650.16
2023-02-15T16:51:42.761Z,101652.63
2023-02-15T16:54:18.613Z,101645.13
2023-02-15T16:56:47.000Z,101654.22
2023-02-15T16:59:44.312Z,101652.25
2023-02-15T17:02:40.207Z,101653.00
2023-02-15T17:05:10.614Z,101646.50
2023-02-15T17:07:42.393Z,101653.47
2023-02-15T17:10:31.818Z,101656.06
2023-02-15T17:13:17.866Z,101655.66
2023-02-15T17:16:05.843Z,101651.97
2023-02-15T17:18:39.485Z,101657.94
2023-02-15T17:21:18.319Z,101649.59
2023-02-15T17:23:50.852Z,101656.38
2023-02-15T17:26:32.914Z,101661.50
2023-02-15T17:29:02.668Z,101656.56
2023-02-15T17:31:33.359Z,101655.13
2023-02-15T17:34:01.177Z,101659.25
2023-02-15T17:36:30.234Z,101652.44
2023-02-15T17:39:01.673Z,101659.78
2023-02-15T17:41:34.998Z,101655.00
2023-02-15T17:44:03.697Z,101662.47
2023-02-15T17:46:35.478Z,101662.75
2023-02-15T17:49:02.200Z,101660.47
2023-02-15T17:51:28.760Z,101653.72
2023-02-15T17:54:13.766Z,101650.59
2023-02-15T17:56:40.190Z,101654.53
2023-02-15T17:59:11.336Z,101652.28
2023-02-15T18:02:04.208Z,101650.03
2023-02-15T18:04:50.944Z,101650.59
2023-02-15T18:07:37.654Z,101648.44
2023-02-15T18:10:32.589Z,101652.53
2023-02-15T18:12:59.066Z,101647.56
2023-02-15T18:15:25.929Z,101657.75
2023-02-15T18:17:52.529Z,101657.31
2023-02-15T18:20:31.737Z,101657.59
2023-02-15T18:22:58.165Z,101658.00
2023-02-15T18:25:25.396Z,101665.31
2023-02-15T18:27:54.941Z,101663.06
2023-02-15T18:30:24.046Z,101671.25
2023-02-15T18:32:53.067Z,101669.81
2023-02-15T18:35:23.680Z,101679.97
2023-02-15T18:37:52.176Z,101670.63
2023-02-15T18:40:29.091Z,101674.72
2023-02-15T18:42:56.968Z,101675.09
2023-02-15T18:45:32.396Z,101673.66
2023-02-15T18:47:59.180Z,101676.91
2023-02-15T18:50:28.996Z,101675.59
2023-02-15T18:52:55.426Z,101679.66
2023-02-15T18:55:25.840Z,101680.91
2023-02-15T18:57:54.717Z,101684.00
2023-02-15T19:00:29.750Z,101683.41
2023-02-15T19:02:56.943Z,101682.81
2023-02-15T19:05:24.621Z,101685.06
2023-02-15T19:07:51.581Z,101674.69
2023-02-15T19:10:25.287Z,101679.47
2023-02-15T19:12:52.929Z,101673.66
2023-02-15T19:15:25.187Z,101671.34
2023-02-15T19:17:52.342Z,101674.41
2023-02-15T19:20:20.179Z,101680.19
2023-02-15T19:22:51.697Z,101677.72
2023-02-15T19:25:24.977Z,101675.31
2023-02-15T19:27:53.557Z,101682.91
2023-02-15T19:30:29.779Z,101681.47
2023-02-15T19:32:57.841Z,101681.00
2023-02-15T19:35:29.006Z,101689.41
2023-02-15T19:38:01.718Z,101688.00
2023-02-15T19:40:34.061Z,101690.19
2023-02-15T19:43:03.677Z,101691.53
2023-02-15T19:45:31.848Z,101690.09
2023-02-15T19:48:01.297Z,101682.31
2023-02-15T19:50:33.197Z,101687.94
2023-02-15T19:53:01.703Z,101685.50
2023-02-15T19:55:33.396Z,101689.25
2023-02-15T19:58:01.246Z,101685.16
2023-02-15T20:00:30.807Z,101672.88
2023-02-15T20:02:59.196Z,101674.97
2023-02-15T20:05:30.400Z,101679.59
2023-02-15T20:07:58.388Z,101679.94
2023-02-15T20:10:28.715Z,101685.41
2023-02-15T20:12:55.762Z,101681.31
2023-02-15T20:15:27.098Z,101677.78
2023-02-15T20:17:54.303Z,101687.88
2023-02-15T20:20:22.525Z,101689.69
2023-02-15T20:22:51.654Z,101680.94
2023-02-15T20:25:21.060Z,101682.91
2023-02-15T20:27:48.012Z,101686.78
2023-02-15T20:30:16.878Z,101692.25
2023-02-15T20:32:43.551Z,101689.84
2023-02-15T20:35:18.064Z,101692.75
2023-02-15T20:37:54.618Z,101689.50
2023-02-15T20:40:30.423Z,101690.69
2023-02-15T20:42:57.217Z,101687.16
2023-02-15T20:45:28.611Z,101684.00
2023-02-15T20:47:55.420Z,101678.31
2023-02-15T20:50:24.808Z,101688.53
2023-02-15T20:52:52.882Z,101691.66
2023-02-15T20:55:22.088Z,101691.19
2023-02-15T20:57:48.898Z,101689.72
2023-02-15T21:00:19.128Z,101698.00
2023-02-15T21:02:52.861Z,101716.84
2023-02-15T21:05:25.283Z,101701.88
2023-02-15T21:07:52.952Z,101715.34
2023-02-15T21:10:24.620Z,101723.50
2023-02-15T21:12:51.833Z,101720.19
2023-02-15T21:15:34.347Z,101722.88
2023-02-15T21:18:06.525Z,101719.50
2023-02-15T21:20:35.026Z,101717.16
2023-02-15T21:23:05.049Z,101713.75
2023-02-15T21:25:36.798Z,101716.63
2023-02-15T21:28:08.263Z,101718.72
2023-02-15T21:30:34.770Z,101717.34
2023-02-15T21:33:01.182Z,101719.41
2023-02-15T21:35:28.658Z,101718.78
2023-02-15T21:37:56.126Z,101720.97
2023-02-15T21:40:29.851Z,101715.09
2023-02-15T21:43:15.883Z,101705.59
2023-02-15T21:46:01.298Z,101706.81
2023-02-15T21:48:27.793Z,101709.75
2023-02-15T21:51:13.536Z,101708.25
2023-02-15T21:53:42.654Z,101704.22
2023-02-15T21:56:13.282Z,101707.22
2023-02-15T21:58:40.237Z,101705.78
2023-02-15T22:01:21.216Z,101706.97
2023-02-15T22:03:48.256Z,101711.56
2023-02-15T22:06:17.214Z,101700.25
2023-02-15T22:08:47.219Z,101703.16
2023-02-15T22:11:17.858Z,101700.59
2023-02-15T22:13:47.486Z,101695.59
2023-02-15T22:16:21.645Z,101687.72
2023-02-15T22:18:49.170Z,101691.44
2023-02-15T22:21:22.025Z,101688.88
2023-02-15T22:23:54.698Z,101691.78
2023-02-15T22:26:30.040Z,101684.00
2023-02-15T22:29:07.223Z,101687.75
2023-02-15T22:31:39.214Z,101688.84
2023-02-15T22:34:23.052Z,101689.91
2023-02-15T22:37:04.889Z,101692.69
2023-02-15T22:39:31.671Z,101687.56
2023-02-15T22:42:02.901Z,101686.84
2023-02-15T22:44:37.646Z,101692.38
2023-02-15T22:47:05.600Z,101690.78
2023-02-15T22:49:32.556Z,101697.22
2023-02-15T22:52:01.700Z,101690.28
2023-02-15T22:54:28.803Z,101693.19
2023-02-15T22:56:58.673Z,101691.56
2023-02-15T22:59:32.958Z,101689.13
2023-02-15T23:02:01.112Z,101699.06
2023-02-15T23:04:36.243Z,101698.34
2023-02-15T23:07:23.270Z,101695.88
2023-02-15T23:09:58.274Z,101695.25
2023-02-15T23:12:55.272Z,101687.34
2023-02-15T23:18:26.403Z,101694.84
2023-02-15T23:21:02.250Z,101691.44
2023-02-15T23:23:41.014Z,101689.84
2023-02-15T23:26:29.536Z,101688.13
2023-02-15T23:29:04.730Z,101690.91
2023-02-15T23:31:36.822Z,101694.44
2023-02-15T23:34:14.950Z,101698.91
2023-02-15T23:36:45.244Z,101690.91
2023-02-15T23:39:41.646Z,101691.75
2023-02-15T23:42:24.525Z,101692.59
2023-02-15T23:44:57.100Z,101692.59
2023-02-15T23:47:47.684Z,101688.13
2023-02-15T23:50:24.212Z,101684.59
2023-02-15T23:52:52.796Z,101687.28
2023-02-15T23:55:21.167Z,101694.31
2023-02-15T23:57:48.416Z,101694.31
